Berlin — 9HA2295 — position and weather

sailwx.info

Track history (hours):
 
Tides and Currents Weather Stations Pressure Air Temp Water Temp Dewpoint Dewpoint Depression Visibility Wind Speed Wind Dir Waves Ship Positions

Berlin

Last reported at 2016-May-30 01:13 UTC. Time now 2016-May-30 05:01 UTC.
Position N 49°50' W 002°41'.

Length 140 m; draft 5.1 m.

Type: Passenger vessel. MMSI: 248277000.

Date/timePositionNaut miles runAvg speedWind from/ knotsBaromVisibWave heightAir tempDewpointWater temp
2016-May-30 01:13N 49°50' W 002°41'811.9
2016-May-30 00:33N 49°48' W 002°53'1311.8
2016-May-29 23:27N 49°40' W 003°09'7211.8
2016-May-29 17:23N 48°57' W 004°37'1012.2
2016-May-29 16:33N 48°51' W 004°49'1413.9
2016-May-29 15:33N 48°42' W 005°05'1313.5
2016-May-29 14:33N 48°33' W 005°20'1211.6
2016-May-29 13:33N 48°22' W 005°18'1514.8
2016-May-29 12:34N 48°16' W 004°57'1414.5
2016-May-29 11:33N 48°20' W 004°36'7 6.6
2016-May-29 10:31N 48°23' W 004°27'0 0.0
2016-May-29 09:31N 48°23' W 004°27'0 0.0
2016-May-29 08:31N 48°23' W 004°27'0 0.0
2016-May-29 07:31N 48°23' W 004°27'0 0.0
2016-May-29 06:31N 48°23' W 004°27'0 0.2
2016-May-29 05:34N 48°23' W 004°27'9 9.1
2016-May-29 04:34N 48°19' W 004°39'1212.0
2016-May-29 03:34N 48°13' W 004°55'9 8.5
2016-May-29 02:33N 48°08' W 005°06'11 8.0
2016-May-29 01:09N 47°59' W 005°15'6 9.1
2016-May-29 00:31N 47°54' W 005°11'9 9.8
2016-May-28 23:34N 47°47' W 005°01'10 9.9
2016-May-28 22:34N 47°41' W 004°49'10 9.9
2016-May-28 21:33N 47°35' W 004°38'12 9.8
2016-May-28 20:21N 47°27' W 004°24'7 9.2
2016-May-28 19:33N 47°23' W 004°15'9 8.8
2016-May-28 18:31N 47°17' W 004°05'9 9.1
2016-May-28 17:33N 47°12' W 003°55'9 9.2
2016-May-28 16:34N 47°05' W 003°46'9 9.2
2016-May-28 15:34N 46°58' W 003°37'8 8.0
2016-May-28 14:33N 46°53' W 003°27'1110.7
2016-May-28 13:33N 46°42' W 003°27'30 7.1
2016-May-28 09:20N 46°23' W 002°53'1111.7
2016-May-28 08:25N 46°25' W 002°38'911.0
2016-May-28 07:34N 46°23' W 002°24'1111.4
2016-May-28 06:34N 46°16' W 002°11'1211.4
2016-May-28 05:33N 46°07' W 002°01'1111.4
2016-May-28 04:33N 45°58' W 001°50'1211.6
2016-May-28 03:32N 45°49' W 001°40'52 1.1
2016-May-26 06:18N 45°15' W 000°45'1416.7
2016-May-26 05:28N 45°27' W 000°54'1516.8
2016-May-26 04:34N 45°38' W 001°08'1312.5
2016-May-26 03:33N 45°35' W 001°25'1413.6
2016-May-26 02:33N 45°25' W 001°38'1515.3
2016-May-26 01:33N 45°13' W 001°51'1515.2
2016-May-26 00:33N 45°01' W 002°04'1515.0
2016-May-25 23:32N 44°49' W 002°17'1414.7
2016-May-25 22:33N 44°38' W 002°30'118 6.4
2016-May-25 04:05N 43°50' W 005°00'814.1
2016-May-25 03:33N 43°50' W 005°11'1414.2
2016-May-25 02:33N 43°50' W 005°31'1414.0
2016-May-25 01:34N 43°51' W 005°50'  
2016-May-22 19:34N 39°09' W 009°42'1010.2
2016-May-22 18:33N 38°59' W 009°42'1010.3
2016-May-22 17:33N 38°48' W 009°42'10 9.7
2016-May-22 16:34N 38°39' W 009°40'1010.3
2016-May-22 15:34N 38°37' W 009°27'1110.6
2016-May-22 14:33N 38°41' W 009°14'6 5.7
2016-May-22 13:32N 38°43' W 009°07'0 0.0
2016-May-22 12:32N 38°43' W 009°07'0 0.0
2016-May-22 11:32N 38°43' W 009°07'0 0.0
2016-May-22 10:32N 38°43' W 009°07'0 0.0
2016-May-22 09:32N 38°43' W 009°07'0 0.0
2016-May-22 08:32N 38°43' W 009°07'0 0.0
2016-May-22 07:32N 38°43' W 009°07'0 0.0
2016-May-22 06:32N 38°43' W 009°07'0 0.0
2016-May-22 05:32N 38°43' W 009°07'0 0.0
2016-May-22 04:32N 38°43' W 009°07'0 0.0
2016-May-22 03:32N 38°43' W 009°07'0 0.0
2016-May-22 02:32N 38°43' W 009°07'0 0.0
2016-May-22 01:32N 38°43' W 009°07'0 0.0
2016-May-22 00:32N 38°43' W 009°07'0 0.0
2016-May-21 23:32N 38°43' W 009°07'0 0.0
2016-May-21 22:29N 38°43' W 009°07'0 0.0
2016-May-21 21:32N 38°43' W 009°07'0 0.0
2016-May-21 20:32N 38°43' W 009°07'0 0.0
2016-May-21 19:32N 38°43' W 009°07'0 0.0
2016-May-21 18:32N 38°43' W 009°07'0 0.0
2016-May-21 17:32N 38°43' W 009°07'0 0.0
2016-May-21 16:29N 38°43' W 009°07'0 0.0
2016-May-21 15:32N 38°43' W 009°07'0 0.0
2016-May-21 14:29N 38°43' W 009°07'0 0.0
2016-May-21 13:32N 38°43' W 009°07'0 0.0
2016-May-21 12:32N 38°43' W 009°07'0 0.0
2016-May-21 11:29N 38°43' W 009°07'0 0.0
2016-May-21 10:26N 38°43' W 009°07'0 0.0
2016-May-21 09:32N 38°43' W 009°07'0 0.0
2016-May-21 08:32N 38°43' W 009°07'0 0.0
2016-May-21 07:32N 38°43' W 009°07'0 0.0
2016-May-21 06:32N 38°43' W 009°07'0 0.0
2016-May-21 05:32N 38°43' W 009°07'0 0.0
2016-May-21 04:32N 38°43' W 009°07'0 0.0
2016-May-21 03:32N 38°43' W 009°07'0 0.0
2016-May-21 02:32N 38°43' W 009°07'0 0.0
2016-May-21 01:32N 38°43' W 009°07'0 0.0
2016-May-21 00:32N 38°43' W 009°07'0 0.0
2016-May-20 23:32N 38°43' W 009°07'0 0.0
2016-May-20 22:32N 38°43' W 009°07'0 0.0
2016-May-20 21:32N 38°43' W 009°07'0 0.0
2016-May-20 20:32N 38°43' W 009°07'0 0.0
2016-May-20 19:29N 38°43' W 009°07'0 0.0
2016-May-20 18:32N 38°43' W 009°07'0 0.0
2016-May-20 17:32N 38°43' W 009°07'0 0.0
2016-May-20 16:32N 38°43' W 009°07'0 0.0
2016-May-20 15:32N 38°43' W 009°07'0 0.0
2016-May-20 14:32N 38°43' W 009°07'0 0.0
2016-May-20 13:31N 38°43' W 009°07'0 0.0
2016-May-20 12:28N 38°43' W 009°07'0 0.4
2016-May-20 11:33N 38°43' W 009°07'9 8.8
2016-May-20 10:33N 38°41' W 009°18'1212.1
2016-May-20 09:33N 38°29' W 009°23'1313.1
2016-May-20 08:33N 38°16' W 009°22'1413.8
2016-May-20 07:33N 38°02' W 009°22'1413.9
2016-May-20 06:33N 37°48' W 009°22'1313.4
2016-May-20 05:33N 37°35' W 009°21'1513.8
2016-May-20 04:27N 37°20' W 009°21'2713.7
2016-May-20 02:30N 36°53' W 009°18'  
Track history (hours):
 
Tides and Currents Weather Stations Pressure Air Temp Water Temp Dewpoint Dewpoint Depression Visibility Wind Speed Wind Dir Waves Ship Positions

Berlin

Last reported at 2016-May-30 01:13 UTC. Time now 2016-May-30 05:01 UTC.
Position N 49°50' W 002°41'.

Length 140 m; draft 5.1 m.

Type: Passenger vessel. MMSI: 248277000.

Date/timePositionNaut miles runAvg speedWind from/ knotsBaromVisibWave heightAir tempDewpointWater temp
2016-May-30 01:13N 49°50' W 002°41'811.9
2016-May-30 00:33N 49°48' W 002°53'1311.8
2016-May-29 23:27N 49°40' W 003°09'7211.8
2016-May-29 17:23N 48°57' W 004°37'1012.2
2016-May-29 16:33N 48°51' W 004°49'1413.9
2016-May-29 15:33N 48°42' W 005°05'1313.5
2016-May-29 14:33N 48°33' W 005°20'1211.6
2016-May-29 13:33N 48°22' W 005°18'1514.8
2016-May-29 12:34N 48°16' W 004°57'1414.5
2016-May-29 11:33N 48°20' W 004°36'7 6.6
2016-May-29 10:31N 48°23' W 004°27'0 0.0
2016-May-29 09:31N 48°23' W 004°27'0 0.0
2016-May-29 08:31N 48°23' W 004°27'0 0.0
2016-May-29 07:31N 48°23' W 004°27'0 0.0
2016-May-29 06:31N 48°23' W 004°27'0 0.2
2016-May-29 05:34N 48°23' W 004°27'9 9.1
2016-May-29 04:34N 48°19' W 004°39'1212.0
2016-May-29 03:34N 48°13' W 004°55'9 8.5
2016-May-29 02:33N 48°08' W 005°06'11 8.0
2016-May-29 01:09N 47°59' W 005°15'6 9.1
2016-May-29 00:31N 47°54' W 005°11'9 9.8
2016-May-28 23:34N 47°47' W 005°01'10 9.9
2016-May-28 22:34N 47°41' W 004°49'10 9.9
2016-May-28 21:33N 47°35' W 004°38'12 9.8
2016-May-28 20:21N 47°27' W 004°24'7 9.2
2016-May-28 19:33N 47°23' W 004°15'9 8.8
2016-May-28 18:31N 47°17' W 004°05'9 9.1
2016-May-28 17:33N 47°12' W 003°55'9 9.2
2016-May-28 16:34N 47°05' W 003°46'9 9.2
2016-May-28 15:34N 46°58' W 003°37'8 8.0
2016-May-28 14:33N 46°53' W 003°27'1110.7
2016-May-28 13:33N 46°42' W 003°27'30 7.1
2016-May-28 09:20N 46°23' W 002°53'1111.7
2016-May-28 08:25N 46°25' W 002°38'911.0
2016-May-28 07:34N 46°23' W 002°24'1111.4
2016-May-28 06:34N 46°16' W 002°11'1211.4
2016-May-28 05:33N 46°07' W 002°01'1111.4
2016-May-28 04:33N 45°58' W 001°50'1211.6
2016-May-28 03:32N 45°49' W 001°40'52 1.1
2016-May-26 06:18N 45°15' W 000°45'1416.7
2016-May-26 05:28N 45°27' W 000°54'1516.8
2016-May-26 04:34N 45°38' W 001°08'1312.5
2016-May-26 03:33N 45°35' W 001°25'1413.6
2016-May-26 02:33N 45°25' W 001°38'1515.3
2016-May-26 01:33N 45°13' W 001°51'1515.2
2016-May-26 00:33N 45°01' W 002°04'1515.0
2016-May-25 23:32N 44°49' W 002°17'1414.7
2016-May-25 22:33N 44°38' W 002°30'118 6.4
2016-May-25 04:05N 43°50' W 005°00'814.1
2016-May-25 03:33N 43°50' W 005°11'1414.2
2016-May-25 02:33N 43°50' W 005°31'1414.0
2016-May-25 01:34N 43°51' W 005°50'  
2016-May-22 19:34N 39°09' W 009°42'1010.2
2016-May-22 18:33N 38°59' W 009°42'1010.3
2016-May-22 17:33N 38°48' W 009°42'10 9.7
2016-May-22 16:34N 38°39' W 009°40'1010.3
2016-May-22 15:34N 38°37' W 009°27'1110.6
2016-May-22 14:33N 38°41' W 009°14'6 5.7
2016-May-22 13:32N 38°43' W 009°07'0 0.0
2016-May-22 12:32N 38°43' W 009°07'0 0.0
2016-May-22 11:32N 38°43' W 009°07'0 0.0
2016-May-22 10:32N 38°43' W 009°07'0 0.0
2016-May-22 09:32N 38°43' W 009°07'0 0.0
2016-May-22 08:32N 38°43' W 009°07'0 0.0
2016-May-22 07:32N 38°43' W 009°07'0 0.0
2016-May-22 06:32N 38°43' W 009°07'0 0.0
2016-May-22 05:32N 38°43' W 009°07'0 0.0
2016-May-22 04:32N 38°43' W 009°07'0 0.0
2016-May-22 03:32N 38°43' W 009°07'0 0.0
2016-May-22 02:32N 38°43' W 009°07'0 0.0
2016-May-22 01:32N 38°43' W 009°07'0 0.0
2016-May-22 00:32N 38°43' W 009°07'0 0.0
2016-May-21 23:32N 38°43' W 009°07'0 0.0
2016-May-21 22:29N 38°43' W 009°07'0 0.0
2016-May-21 21:32N 38°43' W 009°07'0 0.0
2016-May-21 20:32N 38°43' W 009°07'0 0.0
2016-May-21 19:32N 38°43' W 009°07'0 0.0
2016-May-21 18:32N 38°43' W 009°07'0 0.0
2016-May-21 17:32N 38°43' W 009°07'0 0.0
2016-May-21 16:29N 38°43' W 009°07'0 0.0
2016-May-21 15:32N 38°43' W 009°07'0 0.0
2016-May-21 14:29N 38°43' W 009°07'0 0.0
2016-May-21 13:32N 38°43' W 009°07'0 0.0
2016-May-21 12:32N 38°43' W 009°07'0 0.0
2016-May-21 11:29N 38°43' W 009°07'0 0.0
2016-May-21 10:26N 38°43' W 009°07'0 0.0
2016-May-21 09:32N 38°43' W 009°07'0 0.0
2016-May-21 08:32N 38°43' W 009°07'0 0.0
2016-May-21 07:32N 38°43' W 009°07'0 0.0
2016-May-21 06:32N 38°43' W 009°07'0 0.0
2016-May-21 05:32N 38°43' W 009°07'0 0.0
2016-May-21 04:32N 38°43' W 009°07'0 0.0
2016-May-21 03:32N 38°43' W 009°07'0 0.0
2016-May-21 02:32N 38°43' W 009°07'0 0.0
2016-May-21 01:32N 38°43' W 009°07'0 0.0
2016-May-21 00:32N 38°43' W 009°07'0 0.0
2016-May-20 23:32N 38°43' W 009°07'0 0.0
2016-May-20 22:32N 38°43' W 009°07'0 0.0
2016-May-20 21:32N 38°43' W 009°07'0 0.0
2016-May-20 20:32N 38°43' W 009°07'0 0.0
2016-May-20 19:29N 38°43' W 009°07'0 0.0
2016-May-20 18:32N 38°43' W 009°07'0 0.0
2016-May-20 17:32N 38°43' W 009°07'0 0.0
2016-May-20 16:32N 38°43' W 009°07'0 0.0
2016-May-20 15:32N 38°43' W 009°07'0 0.0
2016-May-20 14:32N 38°43' W 009°07'0 0.0
2016-May-20 13:31N 38°43' W 009°07'0 0.0
2016-May-20 12:28N 38°43' W 009°07'0 0.4
2016-May-20 11:33N 38°43' W 009°07'9 8.8
2016-May-20 10:33N 38°41' W 009°18'1212.1
2016-May-20 09:33N 38°29' W 009°23'1313.1
2016-May-20 08:33N 38°16' W 009°22'1413.8
2016-May-20 07:33N 38°02' W 009°22'1413.9
2016-May-20 06:33N 37°48' W 009°22'1313.4
2016-May-20 05:33N 37°35' W 009°21'1513.8
2016-May-20 04:27N 37°20' W 009°21'2713.7
2016-May-20 02:30N 36°53' W 009°18'  

Dump ship's entire track history